Time;durP1;ratioP1;P1;durP2;ratioP2;P2;SDS_P1;SDS_P2;PMS_P1;PMS_P2;Temp;Humidity;BMP_temperature;BMP_pressure;BME280_temperature;BME280_humidity;BME280_pressure;Samples;Min_cycle;Max_cycle;Signal;HPM_P1;HPM_P2
2023/09/07 00:00:30;;;;;;;9.80;8.07;;;20.40;99.60;;;;;;5014409;28;20524;-43
2023/09/07 00:02:57;;;;;;;12.90;8.20;;;20.40;99.70;;;;;;5013718;28;20436;-43
2023/09/07 00:05:24;;;;;;;9.07;7.13;;;20.40;99.80;;;;;;5014140;28;20952;-43
2023/09/07 00:07:50;;;;;;;9.03;7.10;;;20.40;99.90;;;;;;5014250;28;20470;-43
2023/09/07 00:10:17;;;;;;;11.10;8.10;;;20.30;99.90;;;;;;5014018;28;20443;-42
2023/09/07 00:12:44;;;;;;;9.87;7.83;;;20.30;99.90;;;;;;5014139;28;20450;-44
2023/09/07 00:15:12;;;;;;;11.87;7.47;;;20.20;99.90;;;;;;5013539;28;20537;-43
2023/09/07 00:17:39;;;;;;;7.63;6.93;;;20.20;99.90;;;;;;5014068;28;20442;-43
2023/09/07 00:20:10;;;;;;;8.70;7.83;;;20.10;99.90;;;;;;5014051;28;20469;-42
2023/09/07 00:22:37;;;;;;;8.30;7.50;;;20.10;99.90;;;;;;5015040;28;20510;-43
2023/09/07 00:25:06;;;;;;;8.20;7.23;;;20.00;99.90;;;;;;5016019;28;20446;-43
2023/09/07 00:27:33;;;;;;;9.33;8.33;;;20.00;99.90;;;;;;5015125;28;20435;-42
2023/09/07 00:29:59;;;;;;;7.97;7.27;;;20.00;99.90;;;;;;5014704;28;20486;-43
2023/09/07 00:32:27;;;;;;;20.03;8.30;;;19.90;99.90;;;;;;5014705;28;20497;-43
2023/09/07 00:34:54;;;;;;;10.00;8.47;;;19.90;99.90;;;;;;5015576;28;20539;-43
2023/09/07 00:37:20;;;;;;;10.17;9.13;;;19.20;99.90;;;;;;5014423;28;20572;-42
2023/09/07 00:39:47;;;;;;;8.40;7.60;;;19.80;99.90;;;;;;5019099;28;20462;-42
2023/09/07 00:42:14;;;;;;;9.23;8.37;;;19.80;99.90;;;;;;5019929;28;20438;-43
2023/09/07 00:44:40;;;;;;;8.77;8.00;;;19.80;99.90;;;;;;5017361;28;20446;-43
2023/09/07 00:47:07;;;;;;;9.83;8.17;;;19.70;99.90;;;;;;5015637;28;20455;-44
2023/09/07 00:49:35;;;;;;;9.63;8.63;;;19.60;99.90;;;;;;5018159;28;20468;-43
2023/09/07 00:52:02;;;;;;;10.40;8.13;;;19.60;99.90;;;;;;5016826;28;21047;-44
2023/09/07 00:54:30;;;;;;;9.00;8.07;;;19.60;99.90;;;;;;5016948;28;20438;-43
2023/09/07 00:56:57;;;;;;;11.60;8.37;;;19.50;99.90;;;;;;5018359;28;20988;-43
2023/09/07 00:59:24;;;;;;;9.43;8.57;;;19.50;99.90;;;;;;5019958;28;20452;-43
2023/09/07 01:01:50;;;;;;;11.70;8.00;;;19.40;99.90;;;;;;5016834;28;20434;-44
2023/09/07 01:04:19;;;;;;;9.60;8.70;;;19.40;99.90;;;;;;5011823;28;20869;-43
2023/09/07 01:06:53;;;;;;;9.03;8.13;;;19.40;99.90;;;;;;5011949;28;20865;-42
2023/09/07 01:09:22;;;;;;;9.37;7.90;;;19.40;99.90;;;;;;5012943;28;21003;-43
2023/09/07 01:11:49;;;;;;;9.40;8.40;;;19.40;99.90;;;;;;5011763;28;20800;-42
2023/09/07 01:14:17;;;;;;;9.13;8.20;;;19.60;99.90;;;;;;5011526;28;20449;-43
2023/09/07 01:16:43;;;;;;;10.27;9.23;;;19.40;99.90;;;;;;5011731;28;20477;-43
2023/09/07 01:19:11;;;;;;;9.37;7.77;;;19.30;99.90;;;;;;5013097;28;20448;-43
2023/09/07 01:21:40;;;;;;;9.63;8.67;;;19.30;99.90;;;;;;5011659;28;20453;-42
2023/09/07 01:24:08;;;;;;;9.00;8.20;;;19.30;99.90;;;;;;5011065;28;20442;-43
2023/09/07 01:26:38;;;;;;;8.83;8.13;;;19.30;99.90;;;;;;5012819;28;20446;-43
2023/09/07 01:29:05;;;;;;;10.17;9.27;;;19.20;99.90;;;;;;5011356;28;21025;-45
2023/09/07 01:31:36;;;;;;;9.13;8.20;;;19.20;99.90;;;;;;5011668;28;20457;-43
2023/09/07 01:34:02;;;;;;;9.97;8.83;;;19.10;99.90;;;;;;5013838;28;20435;-42
2023/09/07 01:36:29;;;;;;;10.10;8.00;;;19.10;99.90;;;;;;5012676;28;20979;-43
2023/09/07 01:38:57;;;;;;;9.00;8.10;;;19.10;99.90;;;;;;5011701;28;20874;-43
2023/09/07 01:41:24;;;;;;;8.87;8.07;;;19.10;99.90;;;;;;5014344;28;20432;-43
2023/09/07 01:43:51;;;;;;;8.27;7.60;;;19.10;99.90;;;;;;5016968;28;20520;-42
2023/09/07 01:46:18;;;;;;;8.80;8.00;;;19.10;99.90;;;;;;5021702;28;20437;-43
2023/09/07 01:48:45;;;;;;;10.40;9.30;;;19.10;99.90;;;;;;5021079;28;20526;-43
2023/09/07 01:51:12;;;;;;;11.07;8.90;;;19.00;99.90;;;;;;5020745;28;20451;-43
2023/09/07 01:53:38;;;;;;;8.73;7.63;;;18.90;99.90;;;;;;5021474;28;20812;-42
2023/09/07 01:56:06;;;;;;;9.37;8.57;;;18.80;99.90;;;;;;5020539;28;20480;-43
2023/09/07 01:58:34;;;;;;;9.97;8.50;;;18.90;99.90;;;;;;5021077;28;20472;-43
2023/09/07 02:01:01;;;;;;;9.67;8.70;;;18.90;99.90;;;;;;5015328;28;20498;-43
2023/09/07 02:03:28;;;;;;;10.07;8.27;;;18.80;99.90;;;;;;5014458;28;20486;-42
2023/09/07 02:05:55;;;;;;;11.20;7.97;;;18.70;99.90;;;;;;5014567;28;20535;-44
2023/09/07 02:08:21;;;;;;;9.70;8.80;;;18.80;99.90;;;;;;5015984;28;20455;-42
2023/09/07 02:10:48;;;;;;;9.17;8.30;;;18.80;99.90;;;;;;5014559;28;20444;-42
2023/09/07 02:13:16;;;;;;;9.50;8.70;;;18.90;99.90;;;;;;5015353;28;20441;-42
2023/09/07 02:15:42;;;;;;;9.73;8.73;;;18.80;99.90;;;;;;5015795;28;20923;-43
2023/09/07 02:18:09;;;;;;;14.03;8.93;;;18.80;99.90;;;;;;5014371;28;20986;-43
2023/09/07 02:20:36;;;;;;;10.17;9.07;;;18.80;99.90;;;;;;5014581;28;20451;-43
2023/09/07 02:23:02;;;;;;;9.60;8.70;;;18.80;99.90;;;;;;5016220;28;20433;-43
2023/09/07 02:25:30;;;;;;;10.67;8.70;;;18.70;99.90;;;;;;5014505;28;20440;-43
2023/09/07 02:27:58;;;;;;;9.80;8.80;;;18.70;99.90;;;;;;5014838;28;20495;-43
2023/09/07 02:30:26;;;;;;;13.03;9.30;;;18.70;99.90;;;;;;5016380;28;20463;-44
2023/09/07 02:32:53;;;;;;;10.17;8.93;;;18.70;99.90;;;;;;5014618;28;20451;-41
2023/09/07 02:35:19;;;;;;;10.60;9.50;;;18.60;99.90;;;;;;5014727;28;20444;-42
2023/09/07 02:37:46;;;;;;;10.70;8.20;;;18.60;99.90;;;;;;5015701;28;20481;-44
2023/09/07 02:40:15;;;;;;;8.87;7.97;;;18.50;99.90;;;;;;5015607;28;20539;-42
2023/09/07 02:42:42;;;;;;;8.43;7.60;;;18.60;99.90;;;;;;5014041;28;20449;-42
2023/09/07 02:45:11;;;;;;;9.27;8.37;;;18.60;99.90;;;;;;5015551;28;20511;-42
2023/09/07 02:47:39;;;;;;;9.57;7.90;;;18.70;99.90;;;;;;5014833;28;20551;-42
2023/09/07 02:50:06;;;;;;;11.03;7.73;;;18.70;99.90;;;;;;5018963;28;20455;-43
2023/09/07 02:52:33;;;;;;;10.00;8.30;;;18.70;99.90;;;;;;5016319;28;20502;-42
2023/09/07 02:55:00;;;;;;;11.93;8.17;;;18.70;99.90;;;;;;5017281;28;20444;-43
2023/09/07 02:57:27;;;;;;;11.63;8.07;;;18.80;99.90;;;;;;5017031;28;20480;-43
2023/09/07 02:59:54;;;;;;;8.83;7.60;;;18.80;99.90;;;;;;5015568;28;20483;-43
2023/09/07 03:02:21;;;;;;;8.37;7.53;;;18.80;99.90;;;;;;5014973;28;20455;-43
2023/09/07 03:04:53;;;;;;;8.60;7.70;;;18.80;99.90;;;;;;5016108;28;20443;-43
2023/09/07 03:07:20;;;;;;;8.97;7.87;;;18.80;99.90;;;;;;5015114;28;20535;-43
2023/09/07 03:09:48;;;;;;;9.10;8.27;;;18.90;99.90;;;;;;5014960;28;20455;-43
2023/09/07 03:12:14;;;;;;;8.30;7.50;;;18.90;99.90;;;;;;5014451;28;20530;-43
2023/09/07 03:14:44;;;;;;;8.03;7.13;;;18.90;99.90;;;;;;5014958;28;20472;-45
2023/09/07 03:17:10;;;;;;;11.70;7.90;;;18.90;99.90;;;;;;5015089;28;20472;-43
2023/09/07 03:19:37;;;;;;;12.70;8.17;;;19.00;99.90;;;;;;5013654;28;20554;-43
2023/09/07 03:22:05;;;;;;;8.40;7.50;;;18.80;99.90;;;;;;5013115;28;20456;-43
2023/09/07 03:24:32;;;;;;;9.00;8.10;;;18.80;99.90;;;;;;5013554;28;20448;-43
2023/09/07 03:26:59;;;;;;;10.67;8.17;;;18.90;99.90;;;;;;5013878;28;20444;-43
2023/09/07 03:29:26;;;;;;;8.23;7.53;;;18.80;99.90;;;;;;5013884;28;20475;-41
2023/09/07 03:31:53;;;;;;;9.53;8.63;;;18.80;99.90;;;;;;5013799;28;20448;-40
2023/09/07 03:34:20;;;;;;;11.27;8.23;;;18.80;99.90;;;;;;5014185;28;20909;-38
2023/09/07 03:36:47;;;;;;;7.93;7.23;;;18.70;99.90;;;;;;5014102;28;20472;-41
2023/09/07 03:39:15;;;;;;;11.77;9.20;;;18.80;99.90;;;;;;5013719;28;20465;-40
2023/09/07 03:41:41;;;;;;;11.00;9.10;;;18.80;99.90;;;;;;5014939;28;20807;-42
2023/09/07 03:44:08;;;;;;;10.40;9.07;;;18.80;99.90;;;;;;5013789;28;20448;-41
2023/09/07 03:46:35;;;;;;;8.43;7.60;;;18.70;99.90;;;;;;5013396;28;20452;-41
2023/09/07 03:49:02;;;;;;;10.50;8.63;;;18.70;99.90;;;;;;5014677;28;20444;-43
2023/09/07 03:51:29;;;;;;;8.60;7.83;;;18.70;99.90;;;;;;5014502;28;20443;-42
2023/09/07 03:53:55;;;;;;;9.93;9.03;;;18.90;99.90;;;;;;5015203;28;20845;-41
2023/09/07 03:56:23;;;;;;;8.90;8.07;;;18.70;99.90;;;;;;5016097;28;20444;-40
2023/09/07 03:58:50;;;;;;;10.40;9.40;;;18.70;99.90;;;;;;5016065;28;20455;-41
2023/09/07 04:01:17;;;;;;;12.70;9.63;;;18.70;99.90;;;;;;5013347;28;20806;-41
2023/09/07 04:03:43;;;;;;;12.13;9.60;;;18.70;99.90;;;;;;5012360;28;20455;-41
2023/09/07 04:06:10;;;;;;;10.33;9.43;;;18.70;99.90;;;;;;5014166;28;20825;-40
2023/09/07 04:08:38;;;;;;;12.97;9.33;;;18.60;99.90;;;;;;5012711;28;20843;-41
2023/09/07 04:11:05;;;;;;;10.27;9.27;;;18.60;99.90;;;;;;5012715;28;20449;-44
2023/09/07 04:13:33;;;;;;;11.60;9.80;;;18.80;99.90;;;;;;5012725;28;20838;-42
2023/09/07 04:16:00;;;;;;;9.77;8.83;;;18.50;99.90;;;;;;5014765;28;20819;-41
2023/09/07 04:18:27;;;;;;;10.60;9.60;;;18.60;99.90;;;;;;5013933;28;20480;-41
2023/09/07 04:20:53;;;;;;;15.23;9.57;;;18.40;99.90;;;;;;5012825;28;20443;-41
2023/09/07 04:23:20;;;;;;;12.17;9.87;;;18.60;99.90;;;;;;5012722;28;20448;-41
2023/09/07 04:25:47;;;;;;;11.33;9.43;;;18.60;99.90;;;;;;5013232;28;21024;-44
2023/09/07 04:28:14;;;;;;;11.90;9.37;;;18.60;99.90;;;;;;5012934;28;20455;-40
2023/09/07 04:30:42;;;;;;;12.90;9.47;;;18.50;99.90;;;;;;5014475;28;20429;-42
2023/09/07 04:33:09;;;;;;;10.30;9.00;;;18.60;99.90;;;;;;5012738;28;21029;-42
2023/09/07 04:35:38;;;;;;;11.37;9.07;;;18.50;99.90;;;;;;5013261;28;20443;-42
2023/09/07 04:38:04;;;;;;;14.73;9.70;;;18.70;99.90;;;;;;5012834;28;20479;-40
2023/09/07 04:40:32;;;;;;;10.13;9.23;;;18.50;99.90;;;;;;5012570;28;20959;-41
2023/09/07 04:42:58;;;;;;;10.70;9.60;;;18.70;99.90;;;;;;5013796;28;20436;-41
2023/09/07 04:45:25;;;;;;;11.83;10.60;;;18.60;99.90;;;;;;5014296;28;20443;-42
2023/09/07 04:47:53;;;;;;;18.10;10.37;;;18.60;99.90;;;;;;5013593;28;20935;-42
2023/09/07 04:50:20;;;;;;;11.30;10.00;;;18.50;99.90;;;;;;5014410;28;20452;-41
2023/09/07 04:52:46;;;;;;;10.23;9.20;;;18.60;99.90;;;;;;5013076;28;20456;-41
2023/09/07 04:55:13;;;;;;;12.23;9.50;;;18.60;99.90;;;;;;5012991;28;20456;-43
2023/09/07 04:57:40;;;;;;;12.90;10.37;;;18.60;99.90;;;;;;5013584;28;20492;-39
2023/09/07 05:00:09;;;;;;;11.23;9.87;;;18.60;99.90;;;;;;5013310;28;20539;-42
2023/09/07 05:02:38;;;;;;;14.03;10.50;;;18.60;99.90;;;;;;5013386;28;20464;-41
2023/09/07 05:05:07;;;;;;;10.60;9.53;;;18.60;99.90;;;;;;5014011;28;20805;-42
2023/09/07 05:07:34;;;;;;;16.13;9.30;;;18.60;99.90;;;;;;5013674;28;20439;-43
2023/09/07 05:10:00;;;;;;;14.10;10.10;;;18.50;99.90;;;;;;5013470;28;21002;-41
2023/09/07 05:12:27;;;;;;;12.03;8.90;;;18.60;99.90;;;;;;5014097;28;20962;-39
2023/09/07 05:14:54;;;;;;;14.67;10.47;;;18.60;99.90;;;;;;5013229;28;21016;-43
2023/09/07 05:17:20;;;;;;;12.53;9.87;;;18.70;99.90;;;;;;5015506;28;20563;-42
2023/09/07 05:19:48;;;;;;;17.07;10.63;;;18.70;99.90;;;;;;5012868;28;20525;-45
2023/09/07 05:22:17;;;;;;;15.37;10.17;;;18.70;99.90;;;;;;5014970;28;20432;-41
2023/09/07 05:24:46;;;;;;;14.20;9.40;;;18.70;99.90;;;;;;5013907;28;20911;-41
2023/09/07 05:27:13;;;;;;;12.90;9.63;;;18.70;99.90;;;;;;5014571;28;20435;-41
2023/09/07 05:29:40;;;;;;;12.93;9.47;;;18.80;99.90;;;;;;5012844;28;20498;-41
2023/09/07 05:32:07;;;;;;;15.23;9.77;;;18.70;99.90;;;;;;5013199;28;20454;-44
2023/09/07 05:34:34;;;;;;;14.00;9.13;;;18.80;99.90;;;;;;5013478;28;20450;-43
2023/09/07 05:37:00;;;;;;;12.33;9.80;;;18.90;99.90;;;;;;5013234;28;20462;-43
2023/09/07 05:39:28;;;;;;;15.70;9.33;;;18.90;99.90;;;;;;5016015;28;20453;-42
2023/09/07 05:41:55;;;;;;;12.97;10.07;;;19.10;99.90;;;;;;5013948;28;20485;-41
2023/09/07 05:44:22;;;;;;;16.87;10.17;;;19.10;99.90;;;;;;5012920;28;20536;-42
2023/09/07 05:46:48;;;;;;;11.73;8.40;;;19.40;99.90;;;;;;5015162;28;20491;-44
2023/09/07 05:49:15;;;;;;;10.90;9.90;;;19.40;99.90;;;;;;5015294;28;20444;-42
2023/09/07 05:51:42;;;;;;;10.97;9.20;;;19.40;99.90;;;;;;5012876;28;20448;-42
2023/09/07 05:54:09;;;;;;;11.73;9.43;;;19.40;99.90;;;;;;5013179;28;20467;-42
2023/09/07 05:56:37;;;;;;;12.07;8.80;;;19.30;99.90;;;;;;5016829;28;20449;-42
2023/09/07 05:59:03;;;;;;;13.60;9.27;;;19.50;99.90;;;;;;5017689;28;20485;-43
2023/09/07 06:01:30;;;;;;;9.63;8.73;;;19.30;99.90;;;;;;5016463;28;20456;-40
2023/09/07 06:03:57;;;;;;;12.90;8.70;;;19.70;99.90;;;;;;5019094;28;20499;-45
2023/09/07 06:06:23;;;;;;;11.83;9.77;;;19.80;99.90;;;;;;5020792;28;21003;-41
2023/09/07 06:08:50;;;;;;;16.97;9.40;;;19.80;99.90;;;;;;5016239;28;20465;-41
2023/09/07 06:11:17;;;;;;;13.00;8.33;;;20.00;99.90;;;;;;5017558;28;20518;-43
2023/09/07 06:13:46;;;;;;;19.47;10.30;;;20.00;99.90;;;;;;5015141;28;20450;-41
2023/09/07 06:16:13;;;;;;;15.13;8.97;;;20.10;99.90;;;;;;5017075;28;20422;-42
2023/09/07 06:18:40;;;;;;;10.10;8.80;;;20.10;99.90;;;;;;5014630;28;20505;-42
2023/09/07 06:21:06;;;;;;;16.77;9.20;;;20.20;99.90;;;;;;5015845;28;20450;-40
2023/09/07 06:23:33;;;;;;;10.53;8.47;;;20.30;99.90;;;;;;5015529;28;20545;-42
2023/09/07 06:26:00;;;;;;;13.17;9.00;;;20.20;99.90;;;;;;5013366;28;20495;-43
2023/09/07 06:28:27;;;;;;;10.73;9.03;;;20.40;99.90;;;;;;5015051;28;20474;-41
2023/09/07 06:30:56;;;;;;;11.53;8.83;;;20.40;99.90;;;;;;5016825;28;20469;-41
2023/09/07 06:33:23;;;;;;;13.63;9.20;;;20.50;99.90;;;;;;5016081;28;20443;-42
2023/09/07 06:35:50;;;;;;;13.37;8.07;;;20.30;99.90;;;;;;5014794;28;20451;-43
2023/09/07 06:38:16;;;;;;;10.00;7.70;;;20.60;99.90;;;;;;5015623;28;21035;-40
2023/09/07 06:40:48;;;;;;;10.97;8.90;;;20.80;99.90;;;;;;5016441;28;20488;-44
2023/09/07 06:43:15;;;;;;;11.73;8.70;;;20.60;99.90;;;;;;5015444;28;20508;-45
2023/09/07 06:45:42;;;;;;;14.77;9.17;;;20.80;99.90;;;;;;5016247;28;20529;-41
2023/09/07 06:48:12;;;;;;;13.03;9.70;;;20.90;99.90;;;;;;5016892;28;20455;-42
2023/09/07 06:50:39;;;;;;;10.17;8.30;;;20.90;99.90;;;;;;5017216;28;20455;-40
2023/09/07 06:53:06;;;;;;;11.50;8.17;;;21.00;99.90;;;;;;5017903;28;20660;-44
2023/09/07 06:55:33;;;;;;;16.07;8.40;;;21.00;99.90;;;;;;5017861;28;20839;-41
2023/09/07 06:58:01;;;;;;;18.70;8.87;;;21.10;99.90;;;;;;5017092;28;20515;-41
2023/09/07 07:00:28;;;;;;;11.30;8.10;;;21.20;99.90;;;;;;5018714;28;20964;-41
2023/09/07 07:02:54;;;;;;;9.00;7.30;;;21.20;99.90;;;;;;5016163;28;20868;-42
2023/09/07 07:05:23;;;;;;;12.10;8.67;;;21.20;99.90;;;;;;5016028;28;20631;-42
2023/09/07 07:07:50;;;;;;;12.70;7.50;;;21.30;99.90;;;;;;5016179;28;20459;-44
2023/09/07 07:10:17;;;;;;;10.10;7.83;;;21.30;99.90;;;;;;5015588;28;20467;-42
2023/09/07 07:12:43;;;;;;;10.10;7.50;;;21.40;99.90;;;;;;5017643;28;20444;-42
2023/09/07 07:15:11;;;;;;;11.07;7.63;;;21.40;99.90;;;;;;5015744;28;20957;-43
2023/09/07 07:17:38;;;;;;;11.33;7.20;;;21.40;99.90;;;;;;5015584;28;20448;-42
2023/09/07 07:20:06;;;;;;;12.17;7.67;;;21.40;99.90;;;;;;5015850;28;20513;-42
2023/09/07 07:22:35;;;;;;;11.10;7.53;;;21.50;99.70;;;;;;5015254;28;20452;-42
2023/09/07 07:25:05;;;;;;;8.60;6.97;;;21.50;99.70;;;;;;5015850;28;20445;-44
2023/09/07 07:27:32;;;;;;;11.30;6.83;;;21.60;99.70;;;;;;5015966;28;20832;-42
2023/09/07 07:29:59;;;;;;;10.10;7.13;;;21.60;99.60;;;;;;5015185;28;20519;-42
2023/09/07 07:32:25;;;;;;;15.77;7.00;;;21.60;99.30;;;;;;5017452;28;20551;-43
2023/09/07 07:34:52;;;;;;;9.57;6.70;;;21.70;99.10;;;;;;5019698;28;20467;-39
2023/09/07 07:37:19;;;;;;;8.70;7.80;;;21.80;99.00;;;;;;5015928;28;20456;-43
2023/09/07 07:39:47;;;;;;;9.63;7.10;;;21.80;98.80;;;;;;5015016;28;20584;-42
2023/09/07 07:42:14;;;;;;;11.63;6.70;;;21.80;98.80;;;;;;5015459;28;20994;-41
2023/09/07 07:44:42;;;;;;;10.30;6.93;;;21.90;98.70;;;;;;5015595;28;20834;-42
2023/09/07 07:47:09;;;;;;;10.17;6.47;;;22.00;98.60;;;;;;5015153;28;20540;-42
2023/09/07 07:49:36;;;;;;;10.13;6.70;;;21.90;98.50;;;;;;5016247;28;20479;-42
2023/09/07 07:52:03;;;;;;;10.17;6.73;;;22.00;98.50;;;;;;5017841;28;20590;-42
2023/09/07 07:54:30;;;;;;;8.20;6.50;;;22.00;98.50;;;;;;5017281;28;20470;-47
2023/09/07 07:57:01;;;;;;;8.33;6.13;;;21.80;98.30;;;;;;5023310;28;20467;-41
2023/09/07 07:59:28;;;;;;;7.80;6.57;;;21.80;98.10;;;;;;5034145;28;20503;-41
2023/09/07 08:01:55;;;;;;;11.60;6.47;;;22.10;98.10;;;;;;5019587;28;20823;-43
2023/09/07 08:04:22;;;;;;;10.70;6.27;;;22.00;97.80;;;;;;5022885;28;20482;-40
2023/09/07 08:06:49;;;;;;;10.03;6.10;;;22.20;97.80;;;;;;5019470;28;20449;-44
2023/09/07 08:09:16;;;;;;;8.47;6.97;;;22.20;97.60;;;;;;5017030;28;20462;-42
2023/09/07 08:11:42;;;;;;;9.37;6.50;;;22.20;97.40;;;;;;5015072;28;20503;-42
2023/09/07 08:14:11;;;;;;;8.57;6.27;;;22.30;97.20;;;;;;5014960;28;20453;-42
2023/09/07 08:16:38;;;;;;;9.07;6.57;;;22.40;97.00;;;;;;5015626;28;20959;-42
2023/09/07 08:19:05;;;;;;;9.63;5.63;;;22.40;96.90;;;;;;5018341;28;20859;-41
2023/09/07 08:21:31;;;;;;;8.00;5.90;;;22.40;96.80;;;;;;5015974;28;20444;-44
2023/09/07 08:23:59;;;;;;;7.60;6.80;;;22.50;96.50;;;;;;5013013;28;20882;-42
2023/09/07 08:26:26;;;;;;;8.40;6.03;;;22.50;96.40;;;;;;5014517;28;20446;-43
2023/09/07 08:28:52;;;;;;;13.07;6.50;;;22.50;96.10;;;;;;5014977;28;20460;-39
2023/09/07 08:31:22;;;;;;;7.13;6.23;;;22.60;96.00;;;;;;5014237;28;20441;-40
2023/09/07 08:33:50;;;;;;;7.07;6.37;;;22.60;95.80;;;;;;5015730;28;20532;-41
2023/09/07 08:36:17;;;;;;;6.80;5.93;;;22.60;95.70;;;;;;5015071;28;20446;-42
2023/09/07 08:38:44;;;;;;;10.97;5.40;;;22.70;95.60;;;;;;5013013;28;20593;-42
2023/09/07 08:41:11;;;;;;;6.80;6.10;;;22.70;95.40;;;;;;5015087;28;20531;-43
2023/09/07 08:43:45;;;;;;;8.60;5.80;;;22.80;95.40;;;;;;5014681;28;20948;-41
2023/09/07 08:46:15;;;;;;;10.20;5.90;;;22.80;95.00;;;;;;5015214;28;20554;-42
2023/09/07 08:48:44;;;;;;;11.63;5.33;;;22.90;94.70;;;;;;5014893;28;20903;-45
2023/09/07 08:51:12;;;;;;;6.10;4.97;;;22.90;94.60;;;;;;5015171;28;20488;-41
2023/09/07 08:53:40;;;;;;;6.10;5.50;;;22.90;94.40;;;;;;5014181;28;20454;-40
2023/09/07 08:56:09;;;;;;;9.17;6.30;;;23.00;94.50;;;;;;5015495;28;20645;-40
2023/09/07 08:58:36;;;;;;;5.97;5.20;;;23.00;94.60;;;;;;5015884;28;20451;-39
2023/09/07 09:01:03;;;;;;;7.90;5.70;;;23.50;93.50;;;;;;5017730;28;20205;-41
2023/09/07 09:03:30;;;;;;;14.87;6.63;;;23.40;93.60;;;;;;5018467;28;20479;-45
2023/09/07 09:05:58;;;;;;;5.83;5.23;;;23.40;93.70;;;;;;5018015;28;20447;-43
2023/09/07 09:08:25;;;;;;;6.70;5.20;;;23.40;93.50;;;;;;5018487;28;20949;-42
2023/09/07 09:11:02;;;;;;;5.23;4.73;;;23.40;93.30;;;;;;5017584;28;20526;-42
2023/09/07 09:13:30;;;;;;;7.40;6.23;;;23.40;93.20;;;;;;5009471;28;20463;-40
2023/09/07 09:15:59;;;;;;;7.63;5.20;;;23.60;92.80;;;;;;4997062;28;20453;-43
2023/09/07 09:18:26;;;;;;;6.37;5.47;;;23.50;92.80;;;;;;5017713;28;21016;-40
2023/09/07 09:20:53;;;;;;;7.80;5.83;;;23.50;92.70;;;;;;5010219;28;20486;-40
2023/09/07 09:23:21;;;;;;;11.67;5.83;;;23.50;92.80;;;;;;4993174;28;20499;-41
2023/09/07 09:25:49;;;;;;;7.87;5.33;;;23.60;92.80;;;;;;4994782;28;20445;-41
2023/09/07 09:28:15;;;;;;;8.83;5.57;;;23.50;92.80;;;;;;4995555;28;20452;-42
2023/09/07 09:30:43;;;;;;;6.93;5.20;;;23.60;92.90;;;;;;5011360;28;20439;-40
2023/09/07 09:33:11;;;;;;;8.13;6.57;;;23.60;92.70;;;;;;5013933;28;20456;-42
2023/09/07 09:35:38;;;;;;;7.80;6.07;;;23.70;92.70;;;;;;5014671;28;20829;-42
2023/09/07 09:38:05;;;;;;;8.83;5.70;;;23.70;92.60;;;;;;5014020;28;20471;-41
2023/09/07 09:40:35;;;;;;;6.47;5.83;;;23.70;92.50;;;;;;5001773;28;20496;-41
2023/09/07 09:43:03;;;;;;;8.20;5.67;;;23.80;92.30;;;;;;5001920;28;20497;-42
2023/09/07 09:45:30;;;;;;;8.27;6.00;;;23.80;92.20;;;;;;5013038;28;20888;-41
2023/09/07 09:47:57;;;;;;;6.40;5.80;;;23.80;91.90;;;;;;5012386;28;20743;-41
2023/09/07 09:50:24;;;;;;;8.60;4.87;;;23.90;91.80;;;;;;5013222;28;20464;-43
2023/09/07 09:52:52;;;;;;;11.20;5.50;;;23.90;91.70;;;;;;5001189;28;20526;-41
2023/09/07 09:55:20;;;;;;;12.10;6.00;;;24.00;91.40;;;;;;4994860;28;20576;-44
2023/09/07 09:57:47;;;;;;;6.50;4.90;;;24.00;91.20;;;;;;5002057;28;20942;-40
2023/09/07 10:00:25;;;;;;;5.73;5.23;;;24.10;91.10;;;;;;5010235;28;20503;-42
2023/09/07 10:03:02;;;;;;;6.57;5.83;;;24.10;91.00;;;;;;5010315;28;20866;-42
2023/09/07 10:05:30;;;;;;;6.63;5.77;;;24.10;91.00;;;;;;5011141;28;20448;-43
2023/09/07 10:08:05;;;;;;;8.00;5.70;;;24.20;91.00;;;;;;5018209;28;20475;-41
2023/09/07 10:10:34;;;;;;;9.80;5.10;;;24.20;90.90;;;;;;5019656;28;20482;-44
2023/09/07 10:13:03;;;;;;;8.30;5.17;;;24.30;90.70;;;;;;5019917;28;20490;-41
2023/09/07 10:15:31;;;;;;;6.10;5.23;;;24.30;90.50;;;;;;5019978;28;20445;-44
2023/09/07 10:18:08;;;;;;;6.67;5.27;;;24.30;90.20;;;;;;5017304;28;20449;-41
2023/09/07 10:20:52;;;;;;;9.73;5.47;;;24.40;89.90;;;;;;5012525;28;20474;-41
2023/09/07 10:23:18;;;;;;;6.60;4.60;;;24.50;89.10;;;;;;5006649;28;20461;-43
2023/09/07 10:25:49;;;;;;;7.30;4.87;;;24.50;87.60;;;;;;5012000;28;20507;-41
2023/09/07 10:28:21;;;;;;;5.47;4.97;;;24.50;86.30;;;;;;5008040;28;20461;-41
2023/09/07 10:30:59;;;;;;;6.87;5.00;;;24.60;85.50;;;;;;5007593;28;20456;-41
2023/09/07 10:33:25;;;;;;;9.10;5.60;;;24.70;85.10;;;;;;5018408;28;20436;-42
2023/09/07 10:35:52;;;;;;;7.90;4.83;;;24.70;85.30;;;;;;5019429;28;20444;-43
2023/09/07 10:38:19;;;;;;;7.20;5.10;;;24.70;84.70;;;;;;5018815;28;20448;-42
2023/09/07 10:40:46;;;;;;;5.13;4.63;;;24.70;84.40;;;;;;5006430;28;20492;-42
2023/09/07 10:43:12;;;;;;;5.83;4.83;;;24.70;84.40;;;;;;4999270;28;20443;-44
2023/09/07 10:45:44;;;;;;;4.90;4.40;;;24.80;84.40;;;;;;5003717;28;20472;-42
2023/09/07 10:48:11;;;;;;;6.67;4.60;;;24.80;83.90;;;;;;5016755;28;20472;-43
2023/09/07 10:50:45;;;;;;;7.60;5.27;;;24.90;83.30;;;;;;5012522;28;20528;-42
2023/09/07 10:53:13;;;;;;;5.77;4.80;;;24.90;83.10;;;;;;5013859;28;20531;-43
2023/09/07 10:55:43;;;;;;;4.83;4.33;;;24.90;83.00;;;;;;5019232;28;20531;-42
2023/09/07 10:58:10;;;;;;;5.87;4.67;;;25.00;82.70;;;;;;5015604;28;20904;-43
2023/09/07 11:00:37;;;;;;;5.40;4.10;;;25.00;82.60;;;;;;5017263;28;21030;-43
2023/09/07 11:03:11;;;;;;;8.23;5.10;;;25.00;82.20;;;;;;4998231;28;20446;-43
2023/09/07 11:05:39;;;;;;;4.60;3.83;;;25.10;81.30;;;;;;4997744;28;20440;-42
2023/09/07 11:08:07;;;;;;;10.60;4.37;;;25.10;81.30;;;;;;4997963;28;20446;-40
2023/09/07 11:10:35;;;;;;;9.00;4.70;;;25.20;80.80;;;;;;5002091;28;21010;-44
2023/09/07 11:13:05;;;;;;;9.13;5.10;;;25.20;80.90;;;;;;5018489;28;20507;-41
2023/09/07 11:15:33;;;;;;;5.77;5.20;;;25.30;81.10;;;;;;5019296;28;20863;-40
2023/09/07 11:18:05;;;;;;;6.03;4.97;;;25.30;81.20;;;;;;5009073;28;20452;-41
2023/09/07 11:20:33;;;;;;;6.68;5.18;;;25.30;81.00;;;;;;5005464;28;20478;-40
2023/09/07 11:23:00;;;;;;;5.03;4.53;;;25.40;80.70;;;;;;5018374;28;20205;-41
2023/09/07 11:25:27;;;;;;;5.17;4.67;;;25.50;80.10;;;;;;5023144;28;20440;-45
2023/09/07 11:27:54;;;;;;;9.80;4.80;;;25.50;78.80;;;;;;5022320;28;20444;-43
2023/09/07 11:30:21;;;;;;;4.80;4.30;;;25.50;78.40;;;;;;5024967;28;20551;-46
2023/09/07 11:32:48;;;;;;;4.90;4.50;;;25.50;78.10;;;;;;5018304;28;20536;-42
2023/09/07 11:35:15;;;;;;;5.27;3.73;;;25.50;78.00;;;;;;5013797;28;20456;-42
2023/09/07 11:37:43;;;;;;;4.87;3.30;;;25.50;77.40;;;;;;5006842;28;20448;-44
2023/09/07 11:40:12;;;;;;;5.40;4.20;;;25.50;76.50;;;;;;5018036;28;20480;-44
2023/09/07 11:42:39;;;;;;;5.00;4.47;;;25.60;76.40;;;;;;5005403;28;20537;-40
2023/09/07 11:45:09;;;;;;;6.20;4.30;;;25.60;75.70;;;;;;5011248;28;20437;-42
2023/09/07 11:47:37;;;;;;;5.77;3.93;;;25.70;75.20;;;;;;5014123;28;20445;-45
2023/09/07 11:50:04;;;;;;;5.80;4.27;;;25.70;75.40;;;;;;4995956;28;20472;-45
2023/09/07 11:52:31;;;;;;;10.33;4.03;;;25.70;75.50;;;;;;4995369;28;20937;-40
2023/09/07 11:54:59;;;;;;;4.83;4.10;;;25.80;75.40;;;;;;4995258;28;20449;-42
2023/09/07 11:57:26;;;;;;;4.80;4.30;;;25.80;75.10;;;;;;4995429;28;20914;-40
2023/09/07 11:59:53;;;;;;;5.67;5.00;;;25.80;74.90;;;;;;4995031;28;20503;-41
2023/09/07 12:02:21;;;;;;;4.80;4.30;;;25.80;75.00;;;;;;4993796;28;20615;-42
2023/09/07 12:04:47;;;;;;;5.27;3.30;;;25.80;74.60;;;;;;4996141;28;20511;-41
2023/09/07 12:07:14;;;;;;;6.93;4.60;;;25.90;73.80;;;;;;4995264;28;20932;-41
2023/09/07 12:09:41;;;;;;;4.83;3.90;;;25.90;72.80;;;;;;5008479;28;20843;-40
2023/09/07 12:12:10;;;;;;;11.18;9.98;;;26.00;72.70;;;;;;5013723;28;20493;-40
2023/09/07 12:14:37;;;;;;;8.27;5.90;;;26.30;71.60;;;;;;5015001;28;20263;-42
2023/09/07 12:17:04;;;;;;;5.53;5.03;;;26.30;72.30;;;;;;5014942;28;20444;-41
2023/09/07 12:19:30;;;;;;;5.73;3.90;;;26.30;72.80;;;;;;5015111;28;20487;-41
2023/09/07 12:21:57;;;;;;;5.40;4.40;;;26.20;71.50;;;;;;4995295;28;20467;-41
2023/09/07 12:24:24;;;;;;;4.63;4.17;;;26.30;71.60;;;;;;4995099;28;20505;-39
2023/09/07 12:26:50;;;;;;;6.10;4.70;;;26.30;71.60;;;;;;4995062;28;20444;-43
2023/09/07 12:29:20;;;;;;;5.43;4.53;;;26.20;71.90;;;;;;4994926;28;20469;-40
2023/09/07 12:31:46;;;;;;;9.40;4.60;;;26.30;72.40;;;;;;4995842;28;20441;-43
2023/09/07 12:34:13;;;;;;;5.33;4.80;;;26.30;72.50;;;;;;4996460;28;20455;-40
2023/09/07 12:36:40;;;;;;;7.30;4.23;;;26.30;72.00;;;;;;4996556;28;20437;-41
2023/09/07 12:39:07;;;;;;;7.30;4.30;;;26.30;71.60;;;;;;4999094;28;20574;-40
2023/09/07 12:41:34;;;;;;;5.87;3.77;;;26.30;71.20;;;;;;4996287;28;20451;-42
2023/09/07 12:44:00;;;;;;;4.80;4.17;;;26.20;71.10;;;;;;4995287;28;20433;-44